Time;durP1;ratioP1;P1;durP2;ratioP2;P2;SDS_P1;SDS_P2;PMS_P1;PMS_P2;Temp;Humidity;BMP_temperature;BMP_pressure;BME280_temperature;BME280_humidity;BME280_pressure;Samples;Min_cycle;Max_cycle;Signal;HPM_P1;HPM_P2
2024/01/02 00:02:10;;;;;;;103.37;54.53;;;11.60;99.90;;;;;;10296095;28;20326;-83
2024/01/02 00:07:13;;;;;;;106.43;60.70;;;11.60;99.90;;;;;;10331584;28;20252;-83
2024/01/02 00:12:16;;;;;;;31.67;17.93;;;11.50;99.90;;;;;;10305998;28;20233;-83
2024/01/02 00:17:18;;;;;;;28.17;14.07;;;11.50;99.90;;;;;;10309518;28;20663;-83
2024/01/02 00:22:21;;;;;;;29.00;15.57;;;11.10;99.90;;;;;;10298724;28;20245;-84
2024/01/02 00:27:24;;;;;;;97.30;52.70;;;10.50;99.90;;;;;;10324918;28;20249;-83
2024/01/02 00:32:26;;;;;;;26.80;14.73;;;10.30;99.90;;;;;;10292121;28;20288;-83
2024/01/02 00:37:29;;;;;;;58.27;33.93;;;9.80;99.90;;;;;;10273444;28;20237;-83
2024/01/02 00:42:31;;;;;;;44.97;26.60;;;9.90;99.90;;;;;;10274456;28;20229;-83
2024/01/02 00:47:34;;;;;;;53.27;29.70;;;10.00;99.90;;;;;;10291078;28;20261;-83
2024/01/02 00:52:36;;;;;;;104.30;51.87;;;10.60;99.90;;;;;;10291371;28;20341;-83
2024/01/02 00:57:40;;;;;;;102.43;56.50;;;11.00;99.90;;;;;;10274517;28;20237;-83
2024/01/02 01:02:42;;;;;;;71.90;41.83;;;11.20;99.90;;;;;;10314463;28;20288;-83
2024/01/02 01:07:45;;;;;;;79.60;45.63;;;11.80;99.90;;;;;;10330756;28;20253;-83
2024/01/02 01:12:47;;;;;;;83.73;48.30;;;11.80;99.90;;;;;;10312757;28;20213;-83
2024/01/02 01:17:50;;;;;;;63.60;36.80;;;11.60;99.90;;;;;;10286199;28;20237;-83
2024/01/02 01:22:53;;;;;;;54.90;33.63;;;11.80;99.90;;;;;;10290273;28;20287;-83
2024/01/02 01:27:56;;;;;;;56.27;32.53;;;12.00;99.90;;;;;;10293883;28;20249;-83
2024/01/02 01:32:58;;;;;;;69.30;39.60;;;11.90;99.90;;;;;;10288418;28;20238;-83
2024/01/02 01:38:01;;;;;;;40.53;22.60;;;12.20;99.90;;;;;;10289926;28;20268;-83
2024/01/02 01:43:11;;;;;;;52.10;31.03;;;12.00;99.90;;;;;;10289489;28;20292;-83
2024/01/02 01:48:15;;;;;;;39.47;23.57;;;11.60;99.90;;;;;;10277440;28;20275;-83
2024/01/02 01:53:18;;;;;;;15.20;12.03;;;11.90;99.90;;;;;;10328497;28;20240;-83
2024/01/02 01:58:21;;;;;;;64.87;38.30;;;11.60;99.90;;;;;;10311243;28;20236;-83
2024/01/02 02:03:26;;;;;;;56.93;34.77;;;11.50;99.90;;;;;;10310956;28;20327;-83
2024/01/02 02:08:29;;;;;;;66.67;39.37;;;11.70;99.90;;;;;;10284937;28;20261;-83
2024/01/02 02:13:32;;;;;;;62.53;35.13;;;11.70;99.90;;;;;;10320720;28;20763;-83
2024/01/02 02:18:36;;;;;;;25.97;16.20;;;11.90;99.90;;;;;;10273596;28;20706;-83
2024/01/02 02:23:39;;;;;;;51.53;33.03;;;11.80;99.90;;;;;;10268882;28;20233;-83
2024/01/02 02:28:41;;;;;;;25.07;16.37;;;11.90;99.90;;;;;;10257349;28;20261;-83
2024/01/02 02:33:44;;;;;;;54.27;30.97;;;11.60;99.90;;;;;;10268917;28;20237;-83
2024/01/02 02:38:47;;;;;;;56.27;34.30;;;11.80;99.90;;;;;;10286220;28;20853;-83
2024/01/02 02:43:50;;;;;;;47.23;28.27;;;11.80;99.90;;;;;;10271857;28;20234;-83
2024/01/02 02:48:53;;;;;;;34.93;18.33;;;12.00;99.90;;;;;;10284393;28;20666;-83
2024/01/02 02:53:55;;;;;;;50.80;28.43;;;12.30;99.90;;;;;;10286316;28;20354;-83
2024/01/02 02:58:58;;;;;;;55.27;31.80;;;12.20;99.90;;;;;;10267809;28;20233;-83
2024/01/02 03:04:00;;;;;;;43.57;26.77;;;12.60;99.90;;;;;;10255223;28;20310;-83
2024/01/02 03:09:03;;;;;;;62.27;35.70;;;12.50;99.90;;;;;;10284933;28;20261;-83
2024/01/02 03:14:05;;;;;;;45.33;27.33;;;12.40;99.90;;;;;;10285330;28;20635;-83
2024/01/02 03:19:08;;;;;;;48.80;28.10;;;12.30;99.90;;;;;;10285230;28;20284;-83
2024/01/02 03:24:11;;;;;;;34.70;20.97;;;12.00;99.90;;;;;;10287844;28;20633;-83
2024/01/02 03:29:15;;;;;;;56.47;33.70;;;12.00;99.90;;;;;;10267435;28;20322;-83
2024/01/02 03:34:18;;;;;;;33.97;21.40;;;12.40;99.90;;;;;;10268277;28;20300;-83
2024/01/02 03:39:20;;;;;;;39.10;22.43;;;12.00;99.90;;;;;;10285195;28;20226;-83
2024/01/02 03:44:23;;;;;;;37.93;25.07;;;11.90;99.90;;;;;;10288047;28;20229;-83
2024/01/02 03:49:25;;;;;;;43.17;24.27;;;12.30;99.90;;;;;;10283862;28;20327;-83
2024/01/02 03:54:28;;;;;;;37.77;23.87;;;12.30;99.90;;;;;;10284519;28;20753;-83
2024/01/02 03:59:31;;;;;;;34.70;22.97;;;12.50;99.90;;;;;;10283756;28;20233;-83
2024/01/02 04:04:33;;;;;;;26.13;17.60;;;12.20;99.90;;;;;;10284779;28;20261;-83
2024/01/02 04:09:36;;;;;;;45.40;28.13;;;12.20;99.90;;;;;;10285927;28;20789;-83
2024/01/02 04:14:38;;;;;;;35.17;22.07;;;11.90;99.90;;;;;;10292222;28;20233;-83
2024/01/02 04:19:41;;;;;;;27.87;17.13;;;11.90;99.90;;;;;;10272118;28;20237;-83
2024/01/02 04:24:43;;;;;;;30.63;21.00;;;11.80;99.90;;;;;;10273774;28;20241;-83
2024/01/02 04:29:46;;;;;;;32.57;20.20;;;11.80;99.90;;;;;;10290461;28;20253;-83
2024/01/02 04:34:48;;;;;;;16.87;11.07;;;11.50;99.90;;;;;;10291435;28;20236;-83
2024/01/02 04:39:51;;;;;;;15.80;10.13;;;11.70;99.90;;;;;;10290773;28;20265;-83
2024/01/02 04:44:53;;;;;;;34.57;22.53;;;11.30;99.90;;;;;;10291541;28;20242;-83
2024/01/02 04:49:57;;;;;;;21.07;14.13;;;11.30;99.90;;;;;;10273591;28;20249;-83
2024/01/02 04:55:00;;;;;;;37.00;23.53;;;10.80;99.90;;;;;;10290273;28;20684;-83
2024/01/02 05:00:04;;;;;;;23.13;17.47;;;11.20;99.90;;;;;;10292885;28;20233;-83
2024/01/02 05:05:06;;;;;;;23.57;15.67;;;11.30;99.90;;;;;;10287990;28;20264;-83
2024/01/02 05:10:09;;;;;;;11.43;8.83;;;10.40;99.90;;;;;;10290045;28;20300;-83
2024/01/02 05:15:12;;;;;;;28.50;19.37;;;9.70;99.90;;;;;;10255484;28;20288;-82
2024/01/02 05:20:14;;;;;;;13.03;10.50;;;9.40;99.90;;;;;;10274331;28;20256;-83
2024/01/02 05:25:17;;;;;;;12.53;8.13;;;8.80;99.90;;;;;;10289358;28;20666;-83
2024/01/02 05:30:19;;;;;;;13.47;8.30;;;8.30;99.90;;;;;;10288448;28;20931;-83
2024/01/02 05:35:22;;;;;;;12.40;7.33;;;8.00;99.90;;;;;;10290304;28;20284;-83
2024/01/02 05:40:24;;;;;;;9.70;6.47;;;7.40;99.90;;;;;;10288252;28;20237;-83
2024/01/02 05:45:27;;;;;;;8.67;6.60;;;7.20;99.90;;;;;;10290173;28;20279;-83
2024/01/02 05:50:29;;;;;;;10.10;7.43;;;6.80;99.90;;;;;;10301752;28;20319;-83
2024/01/02 05:55:32;;;;;;;14.10;9.57;;;6.70;99.90;;;;;;10287541;28;20233;-83
2024/01/02 06:00:35;;;;;;;17.90;10.83;;;6.20;99.90;;;;;;10270156;28;20272;-83
2024/01/02 06:05:37;;;;;;;12.93;8.77;;;5.90;99.90;;;;;;10308495;28;20307;-83
2024/01/02 06:10:41;;;;;;;12.60;8.67;;;5.60;99.90;;;;;;10307659;28;20283;-84
2024/01/02 06:15:43;;;;;;;11.80;8.63;;;5.50;99.90;;;;;;10288485;28;20233;-88
2024/01/02 06:20:46;;;;;;;14.70;9.17;;;6.70;99.90;;;;;;10270150;28;20555;-88
2024/01/02 06:25:48;;;;;;;17.03;9.93;;;6.60;99.90;;;;;;10270300;28;20244;-88
2024/01/02 06:30:51;;;;;;;19.33;12.23;;;5.60;99.90;;;;;;10288646;28;20264;-87
2024/01/02 06:35:54;;;;;;;24.63;15.97;;;5.10;99.90;;;;;;10286357;28;20271;-88
2024/01/02 06:40:56;;;;;;;35.97;16.23;;;4.40;99.90;;;;;;10287410;28;20272;-88
2024/01/02 06:46:01;;;;;;;32.40;16.10;;;4.30;99.90;;;;;;10287505;28;20310;-88
2024/01/02 06:51:04;;;;;;;26.47;15.13;;;4.10;99.90;;;;;;10287177;28;20255;-88
2024/01/02 06:56:07;;;;;;;23.27;13.93;;;3.90;99.90;;;;;;10309927;28;20222;-88
2024/01/02 07:01:14;;;;;;;26.03;15.17;;;3.80;99.90;;;;;;10326937;28;20288;-88
2024/01/02 07:06:17;;;;;;;31.93;19.23;;;3.80;99.90;;;;;;10326412;28;20264;-87
2024/01/02 07:11:20;;;;;;;30.70;15.97;;;3.70;99.90;;;;;;10325710;28;20639;-87
2024/01/02 07:16:22;;;;;;;17.50;11.47;;;3.70;99.90;;;;;;10325056;28;20272;-87
2024/01/02 07:21:25;;;;;;;29.93;15.30;;;3.60;99.90;;;;;;10325394;28;20285;-87
2024/01/02 07:26:27;;;;;;;23.67;14.17;;;3.50;99.90;;;;;;10326370;28;20764;-86
2024/01/02 07:31:32;;;;;;;27.60;17.00;;;3.10;99.90;;;;;;10313951;28;20253;-87
2024/01/02 07:36:34;;;;;;;30.47;16.53;;;3.60;99.90;;;;;;10306838;28;20638;-88
2024/01/02 07:41:37;;;;;;;26.43;12.80;;;5.20;99.90;;;;;;10308611;28;20270;-86
2024/01/02 07:46:39;;;;;;;20.10;11.27;;;5.40;99.90;;;;;;10251467;28;20229;-87
2024/01/02 07:51:42;;;;;;;16.43;9.70;;;5.00;99.90;;;;;;10254278;29;20283;-87
2024/01/02 07:56:44;;;;;;;13.30;8.07;;;4.30;99.90;;;;;;10254198;28;20241;-86
2024/01/02 08:01:49;;;;;;;9.97;6.53;;;3.90;99.90;;;;;;10330272;28;20277;-89
2024/01/02 08:06:52;;;;;;;12.10;5.37;;;4.90;99.90;;;;;;10314773;28;20200;-90
2024/01/02 08:11:55;;;;;;;14.23;6.83;;;4.50;99.90;;;;;;10333186;28;20258;-83
2024/01/02 08:16:59;;;;;;;20.60;11.13;;;3.60;99.90;;;;;;10314761;28;20243;-83
2024/01/02 08:22:02;;;;;;;17.03;10.27;;;3.10;99.90;;;;;;10331069;28;20240;-83
2024/01/02 08:27:05;;;;;;;17.73;14.07;;;2.80;99.90;;;;;;10332454;28;20217;-83
2024/01/02 08:32:07;;;;;;;27.90;15.83;;;2.60;99.90;;;;;;10332160;28;20265;-88
2024/01/02 08:37:09;;;;;;;29.87;14.30;;;2.50;99.90;;;;;;10331554;28;20236;-86
2024/01/02 08:42:12;;;;;;;18.97;10.47;;;3.50;99.90;;;;;;10332474;28;20299;-86
2024/01/02 08:47:15;;;;;;;12.87;7.80;;;4.60;99.90;;;;;;10314428;28;20287;-86
2024/01/02 08:52:17;;;;;;;12.00;7.13;;;4.40;99.90;;;;;;10331258;28;20259;-86
2024/01/02 08:57:23;;;;;;;11.57;6.37;;;4.50;99.90;;;;;;10312359;28;20290;-86
2024/01/02 09:02:26;;;;;;;13.27;7.60;;;4.60;99.90;;;;;;10329592;28;20323;-86
2024/01/02 09:07:31;;;;;;;12.90;7.47;;;4.70;99.90;;;;;;10330434;28;20265;-86
2024/01/02 09:12:33;;;;;;;15.10;7.77;;;5.00;99.90;;;;;;10329998;28;20315;-86
2024/01/02 09:17:36;;;;;;;12.57;7.40;;;5.10;99.90;;;;;;10330112;28;20703;-86
2024/01/02 09:22:39;;;;;;;11.87;6.20;;;5.10;99.90;;;;;;10314267;28;20237;-86
2024/01/02 09:27:43;;;;;;;9.30;5.13;;;5.90;99.90;;;;;;10289401;28;20281;-87
2024/01/02 09:32:45;;;;;;;10.67;6.10;;;6.40;99.90;;;;;;10330012;28;20654;-87
2024/01/02 09:37:48;;;;;;;13.23;5.60;;;6.50;99.90;;;;;;10305610;28;20290;-88
2024/01/02 09:43:07;;;;;;;11.57;6.10;;;6.40;99.90;;;;;;10301007;28;20229;-88
2024/01/02 09:48:23;;;;;;;11.07;6.10;;;6.50;99.90;;;;;;10327752;28;20746;-87
2024/01/02 09:53:50;;;;;;;8.77;5.57;;;6.40;99.90;;;;;;10302881;28;20621;-88
2024/01/02 09:59:28;;;;;;;16.20;7.43;;;6.60;99.90;;;;;;10299750;28;20235;-88
2024/01/02 10:05:08;;;;;;;20.43;6.60;;;6.50;99.90;;;;;;10311655;28;20263;-88
2024/01/02 10:10:33;;;;;;;10.77;6.10;;;6.50;99.90;;;;;;10326753;28;20280;-88
2024/01/02 10:15:46;;;;;;;15.50;6.30;;;6.50;99.90;;;;;;10295450;28;20252;-88
2024/01/02 10:20:57;;;;;;;10.53;5.73;;;6.60;99.90;;;;;;10318888;28;20277;-87
2024/01/02 10:26:04;;;;;;;12.87;6.17;;;7.10;99.90;;;;;;10313082;28;20235;-88
2024/01/02 10:31:07;;;;;;;18.17;7.37;;;7.70;99.90;;;;;;10287127;28;20261;-87
2024/01/02 10:36:11;;;;;;;19.47;8.40;;;7.60;99.90;;;;;;10270231;28;20233;-89
2024/01/02 10:41:26;;;;;;;16.40;8.27;;;7.60;99.90;;;;;;10288208;28;20238;-88
2024/01/02 10:46:37;;;;;;;15.07;6.90;;;7.60;99.90;;;;;;10289789;28;20243;-89
2024/01/02 10:51:41;;;;;;;14.00;7.30;;;7.60;99.90;;;;;;10311333;28;20260;-88
2024/01/02 10:56:49;;;;;;;12.60;6.40;;;8.00;99.90;;;;;;10327586;28;20248;-86
2024/01/02 11:02:03;;;;;;;11.73;6.00;;;8.00;99.90;;;;;;10327210;28;20829;-86
2024/01/02 11:07:08;;;;;;;13.03;7.20;;;8.60;99.90;;;;;;10309606;28;20843;-86
2024/01/02 11:12:12;;;;;;;10.00;5.87;;;8.40;99.90;;;;;;10309679;28;20264;-86
2024/01/02 11:17:18;;;;;;;10.13;6.47;;;8.70;99.90;;;;;;10287018;28;20291;-87
2024/01/02 11:22:29;;;;;;;17.13;9.77;;;9.10;99.90;;;;;;10326682;28;20298;-87
2024/01/02 11:27:32;;;;;;;13.70;8.83;;;9.30;99.90;;;;;;10322597;28;20279;-87
2024/01/02 11:33:12;;;;;;;20.33;9.83;;;9.80;99.90;;;;;;10339444;28;20344;-88
2024/01/02 11:38:18;;;;;;;17.70;11.50;;;9.60;99.90;;;;;;10280268;28;20656;-88
2024/01/02 11:43:31;;;;;;;18.70;8.70;;;10.00;99.90;;;;;;10298753;28;20229;-89
2024/01/02 11:48:37;;;;;;;25.30;13.07;;;10.30;99.90;;;;;;10309438;28;20228;-88
2024/01/02 11:53:58;;;;;;;27.43;14.07;;;10.20;99.90;;;;;;10337812;28;20283;-88
2024/01/02 11:59:14;;;;;;;18.23;9.27;;;10.10;99.90;;;;;;10337140;28;20290;-88
2024/01/02 12:04:35;;;;;;;27.00;11.53;;;10.10;99.90;;;;;;10338894;28;20321;-88
2024/01/02 12:09:42;;;;;;;31.00;14.00;;;10.10;99.90;;;;;;10338011;28;20260;-88
2024/01/02 12:15:05;;;;;;;24.97;12.83;;;10.90;99.90;;;;;;10337375;28;20255;-88
2024/01/02 12:20:10;;;;;;;9.07;6.47;;;10.80;99.90;;;;;;10338969;28;20236;-88
2024/01/02 12:25:15;;;;;;;19.13;9.30;;;9.50;99.90;;;;;;10304254;28;20233;-89
2024/01/02 12:30:31;;;;;;;16.63;9.70;;;9.70;99.90;;;;;;10302456;28;20627;-88
2024/01/02 12:35:49;;;;;;;18.63;11.30;;;9.50;99.90;;;;;;10292973;28;20233;-88
2024/01/02 12:41:02;;;;;;;16.20;8.67;;;9.70;99.90;;;;;;10290401;28;20302;-87
2024/01/02 12:46:19;;;;;;;12.00;6.90;;;9.90;99.90;;;;;;10293784;28;20703;-88
2024/01/02 12:51:25;;;;;;;9.90;5.33;;;10.20;99.90;;;;;;10330325;28;20322;-87
2024/01/02 12:56:32;;;;;;;11.60;6.00;;;10.50;99.90;;;;;;10329819;28;20306;-87
2024/01/02 13:01:36;;;;;;;8.17;5.03;;;10.30;99.90;;;;;;10313888;28;20615;-87
2024/01/02 13:06:40;;;;;;;13.90;8.60;;;10.30;99.90;;;;;;10330436;28;20345;-88
2024/01/02 13:11:42;;;;;;;23.57;9.93;;;10.10;99.90;;;;;;10329394;28;20295;-88
2024/01/02 13:16:46;;;;;;;25.57;15.73;;;9.80;99.90;;;;;;10329483;28;20237;-88
2024/01/02 13:21:49;;;;;;;27.10;14.53;;;9.90;99.90;;;;;;10318670;28;20261;-88
2024/01/02 13:26:52;;;;;;;33.00;16.57;;;10.30;99.90;;;;;;10288346;28;20226;-89
2024/01/02 13:31:56;;;;;;;10.67;6.80;;;10.40;99.90;;;;;;10272321;28;20280;-89
2024/01/02 13:36:59;;;;;;;16.70;7.40;;;10.70;99.90;;;;;;10280427;28;20197;-89
2024/01/02 13:42:02;;;;;;;20.60;10.07;;;10.50;99.90;;;;;;10273163;28;20229;-89
2024/01/02 13:47:06;;;;;;;29.63;11.03;;;10.50;99.90;;;;;;10290262;28;20634;-89
2024/01/02 13:52:09;;;;;;;22.33;10.23;;;10.80;99.90;;;;;;10313750;28;20260;-89
2024/01/02 13:57:12;;;;;;;19.43;8.47;;;10.90;99.90;;;;;;10324197;28;20279;-89
2024/01/02 14:02:15;;;;;;;16.47;9.47;;;10.70;99.90;;;;;;10327860;28;20269;-89
2024/01/02 14:07:17;;;;;;;20.57;11.20;;;10.70;99.90;;;;;;10328845;28;20229;-87
2024/01/02 14:12:22;;;;;;;25.27;13.20;;;11.20;99.90;;;;;;10328036;28;20260;-87
2024/01/02 14:17:30;;;;;;;18.57;9.73;;;11.30;99.90;;;;;;10328762;28;20229;-86
2024/01/02 14:22:42;;;;;;;20.03;10.73;;;10.80;99.90;;;;;;10311423;28;20208;-88
2024/01/02 14:28:07;;;;;;;34.73;16.37;;;10.50;99.90;;;;;;10311239;28;20204;-87
2024/01/02 14:33:45;;;;;;;29.60;14.13;;;10.60;99.90;;;;;;10327031;28;20260;-86
2024/01/02 14:39:10;;;;;;;27.10;13.20;;;10.90;99.90;;;;;;10327400;28;20290;-88
2024/01/02 14:44:24;;;;;;;35.90;16.63;;;10.40;99.90;;;;;;10328612;28;20748;-88
2024/01/02 14:49:32;;;;;;;30.57;15.77;;;10.20;99.90;;;;;;10327499;28;20268;-88
2024/01/02 14:55:02;;;;;;;35.80;16.03;;;10.00;99.90;;;;;;10327029;28;20283;-88
2024/01/02 15:00:09;;;;;;;37.23;17.43;;;10.30;99.90;;;;;;10327732;28;20237;-87
2024/01/02 15:05:28;;;;;;;34.07;16.10;;;10.50;99.90;;;;;;10326613;28;20307;-87
2024/01/02 15:16:35;;;;;;;27.63;15.43;;;11.00;99.90;;;;;;11231949;23;20298;-88
2024/01/02 15:21:51;;;;;;;28.40;14.43;;;10.80;99.90;;;;;;9165930;29;10000495;-89
2024/01/02 15:26:58;;;;;;;26.47;14.70;;;10.80;99.90;;;;;;10204299;29;20235;-89
2024/01/02 15:32:13;;;;;;;27.33;14.17;;;11.20;99.90;;;;;;10152361;29;20306;-89
2024/01/02 15:37:28;;;;;;;21.50;12.07;;;10.90;99.90;;;;;;10178948;29;20310;-89
2024/01/02 15:42:38;;;;;;;31.63;15.30;;;11.10;99.90;;;;;;10191333;29;20231;-89
2024/01/02 15:48:35;;;;;;;26.43;14.40;;;11.30;99.90;;;;;;10178879;29;20235;-88
2024/01/02 15:53:52;;;;;;;31.30;15.70;;;11.10;99.90;;;;;;10051263;29;20302;-87
2024/01/02 15:58:55;;;;;;;37.93;20.47;;;11.90;99.90;;;;;;10073007;29;20274;-86
2024/01/02 16:04:27;;;;;;;29.67;14.70;;;12.10;99.90;;;;;;10050518;29;20256;-85
2024/01/02 16:09:59;;;;;;;36.53;17.53;;;12.50;99.90;;;;;;10091067;29;20757;-86
2024/01/02 16:15:23;;;;;;;28.17;14.47;;;12.10;99.90;;;;;;10090950;29;20380;-85
2024/01/02 16:20:44;;;;;;;29.47;14.93;;;12.20;99.90;;;;;;10090691;29;20245;-86
2024/01/02 16:26:11;;;;;;;28.00;17.03;;;12.10;99.90;;;;;;10121952;29;20310;-86
2024/01/02 16:31:43;;;;;;;31.70;17.23;;;12.10;99.90;;;;;;10205495;29;20250;-87
2024/01/02 16:36:55;;;;;;;30.70;16.17;;;12.30;99.90;;;;;;10197623;29;20788;-87
2024/01/02 16:41:58;;;;;;;88.73;47.27;;;;;;;;;;10203770;29;20240;-86
2024/01/02 16:47:02;;;;;;;33.73;18.93;;;12.70;99.90;;;;;;10207230;29;20270;-89
2024/01/02 16:52:05;;;;;;;30.00;16.47;;;12.40;99.90;;;;;;10189750;29;20254;-87
2024/01/02 16:57:08;;;;;;;31.07;15.97;;;11.60;99.90;;;;;;10209996;29;20218;-89
2024/01/02 17:02:16;;;;;;;27.53;14.63;;;11.50;99.90;;;;;;10210367;29;20219;-88
2024/01/02 17:07:21;;;;;;;32.13;15.70;;;12.10;99.90;;;;;;10192860;29;20762;-88
2024/01/02 17:12:31;;;;;;;28.43;15.20;;;11.70;99.90;;;;;;10179854;29;20655;-88
2024/01/02 17:17:35;;;;;;;23.23;13.40;;;11.90;99.90;;;;;;10175717;29;20270;-88
2024/01/02 17:22:38;;;;;;;27.50;13.63;;;11.50;99.90;;;;;;10176946;29;20317;-88
2024/01/02 17:27:41;;;;;;;32.90;14.93;;;11.40;99.90;;;;;;10213115;29;20234;-88
2024/01/02 17:32:43;;;;;;;23.53;13.57;;;11.40;99.90;;;;;;10202540;29;20302;-88
2024/01/02 17:37:46;;;;;;;21.23;12.07;;;11.40;99.90;;;;;;10174184;29;20236;-88
2024/01/02 17:42:49;;;;;;;35.37;17.23;;;11.90;99.90;;;;;;10152458;29;20293;-87
2024/01/02 17:47:59;;;;;;;26.43;13.33;;;11.40;99.90;;;;;;10200743;29;20295;-87
2024/01/02 17:53:02;;;;;;;45.13;23.57;;;10.90;99.90;;;;;;10205662;29;20259;-87
2024/01/02 17:58:13;;;;;;;55.57;27.60;;;10.90;99.90;;;;;;10208216;29;20294;-88
2024/01/02 18:03:47;;;;;;;41.97;21.80;;;10.90;99.90;;;;;;10191417;29;20247;-87
2024/01/02 18:09:18;;;;;;;56.63;28.93;;;10.90;99.90;;;;;;10207817;29;20247;-89
2024/01/02 18:14:45;;;;;;;137.67;56.57;;;11.10;99.90;;;;;;10208010;29;20306;-87
2024/01/02 18:20:11;;;;;;;40.60;23.10;;;10.90;99.90;;;;;;10207020;29;20284;-86
2024/01/02 18:25:35;;;;;;;34.53;16.47;;;11.00;99.90;;;;;;10182086;29;20757;-86
2024/01/02 18:30:53;;;;;;;37.57;21.33;;;11.20;99.90;;;;;;9858688;29;10000348;-86
2024/01/02 18:36:10;;;;;;;20.80;12.47;;;11.00;99.90;;;;;;10203401;29;20258;-86
2024/01/02 18:41:33;;;;;;;23.23;12.73;;;10.70;99.90;;;;;;10203296;29;20230;-86
2024/01/02 18:46:44;;;;;;;29.83;15.03;;;10.90;99.90;;;;;;10185275;29;20242;-86
2024/01/02 18:52:07;;;;;;;21.47;11.73;;;11.10;99.90;;;;;;10198957;29;20262;-87
2024/01/02 18:57:09;;;;;;;25.60;14.27;;;10.60;99.90;;;;;;10198957;29;20634;-86
2024/01/02 19:02:12;;;;;;;20.57;11.67;;;10.70;99.90;;;;;;10197474;29;20238;-86
2024/01/02 19:07:19;;;;;;;25.10;15.30;;;10.60;99.90;;;;;;10186422;29;20282;-86
2024/01/02 19:12:22;;;;;;;71.90;33.60;;;10.20;99.90;;;;;;10202790;29;20319;-86
2024/01/02 19:17:25;;;;;;;89.77;34.90;;;10.60;99.90;;;;;;10200407;29;20675;-86
2024/01/02 19:22:30;;;;;;;34.73;16.77;;;10.70;99.90;;;;;;10200450;29;20299;-86
2024/01/02 19:27:32;;;;;;;27.67;13.70;;;11.00;99.90;;;;;;10202249;29;20744;-85
2024/01/02 19:32:35;;;;;;;29.90;13.87;;;10.30;99.90;;;;;;10197864;29;20263;-86
2024/01/02 19:37:38;;;;;;;41.03;20.90;;;10.60;99.90;;;;;;10204556;29;20234;-86
2024/01/02 19:42:42;;;;;;;31.87;13.97;;;10.60;99.90;;;;;;10210992;29;20261;-86
2024/01/02 19:47:47;;;;;;;20.03;12.50;;;10.70;99.90;;;;;;10212920;29;20262;-86
2024/01/02 19:52:50;;;;;;;19.97;12.87;;;10.70;99.90;;;;;;10206448;29;20801;-85
2024/01/02 19:57:54;;;;;;;39.83;23.83;;;10.20;99.90;;;;;;10192611;29;20235;-86
2024/01/02 20:02:57;;;;;;;29.63;13.70;;;9.70;99.90;;;;;;10195708;29;20283;-86
2024/01/02 20:08:37;;;;;;;22.00;11.00;;;9.80;99.90;;;;;;10210045;29;20239;-86
2024/01/02 20:13:40;;;;;;;64.70;30.67;;;10.30;99.90;;;;;;10115564;29;20276;-85
2024/01/02 20:18:50;;;;;;;58.50;27.33;;;9.90;99.90;;;;;;10120699;29;20275;-85
2024/01/02 20:24:08;;;;;;;43.43;22.60;;;10.50;99.90;;;;;;10131897;29;20706;-85
2024/01/02 20:29:56;;;;;;;40.87;21.63;;;10.60;99.90;;;;;;10104558;29;20252;-85
2024/01/02 20:35:05;;;;;;;45.73;24.60;;;10.90;99.90;;;;;;10093105;29;20266;-85
2024/01/02 20:40:36;;;;;;;36.43;19.47;;;10.60;99.90;;;;;;10125545;29;20248;-86
2024/01/02 20:45:39;;;;;;;33.83;19.43;;;10.30;99.90;;;;;;10184402;29;20684;-86
2024/01/02 20:50:45;;;;;;;43.73;23.53;;;10.80;99.90;;;;;;10194067;29;20746;-86
2024/01/02 20:55:50;;;;;;;47.00;22.63;;;11.10;99.90;;;;;;10209317;29;20227;-87
2024/01/02 21:00:52;;;;;;;26.93;16.00;;;11.10;99.90;;;;;;10192252;29;20239;-87
2024/01/02 21:05:57;;;;;;;34.93;18.40;;;10.70;99.90;;;;;;10187381;29;20235;-87
2024/01/02 21:11:04;;;;;;;27.03;14.83;;;10.60;99.90;;;;;;10193110;29;20239;-87
2024/01/02 21:16:10;;;;;;;41.70;20.90;;;10.70;99.90;;;;;;10204016;29;20313;-86
2024/01/02 21:21:41;;;;;;;33.00;18.23;;;10.60;99.90;;;;;;10210197;29;20238;-87
2024/01/02 21:26:44;;;;;;;39.07;21.77;;;10.60;99.90;;;;;;10206477;29;20282;-86
2024/01/02 21:31:48;;;;;;;59.80;28.03;;;11.00;99.90;;;;;;10190589;29;20258;-87
2024/01/02 21:36:51;;;;;;;44.17;21.80;;;11.00;99.90;;;;;;10209488;29;20222;-86
2024/01/02 21:41:54;;;;;;;32.13;17.50;;;10.90;99.90;;;;;;10202060;29;20281;-86
2024/01/02 21:46:57;;;;;;;37.40;17.83;;;10.80;99.90;;;;;;10207194;29;20227;-86
2024/01/02 21:52:52;;;;;;;39.17;21.63;;;10.70;99.90;;;;;;10176033;29;20307;-87
2024/01/02 21:57:55;;;;;;;37.43;19.10;;;10.90;99.90;;;;;;10207339;29;20265;-87
2024/01/02 22:03:06;;;;;;;34.27;18.63;;;10.50;99.90;;;;;;10206575;29;20238;-87
2024/01/02 22:08:25;;;;;;;22.53;14.00;;;10.70;99.90;;;;;;10200269;29;20710;-87
2024/01/02 22:13:30;;;;;;;36.57;19.40;;;10.40;99.90;;;;;;10205968;29;20250;-86
2024/01/02 22:18:34;;;;;;;36.33;18.40;;;10.50;99.90;;;;;;10206874;29;20295;-87
2024/01/02 22:23:37;;;;;;;27.73;14.93;;;10.20;99.90;;;;;;10189574;29;20266;-87
2024/01/02 22:28:41;;;;;;;22.00;14.07;;;10.30;99.90;;;;;;10206459;29;20647;-87
2024/01/02 22:33:48;;;;;;;28.20;16.53;;;10.20;99.90;;;;;;10206365;29;20739;-87
2024/01/02 22:39:01;;;;;;;35.10;18.17;;;10.50;99.90;;;;;;10206081;29;20284;-88
2024/01/02 22:44:04;;;;;;;26.00;15.50;;;10.50;99.90;;;;;;10187230;29;20676;-86
2024/01/02 22:49:06;;;;;;;28.30;15.90;;;10.40;99.90;;;;;;10193420;29;20244;-88
2024/01/02 22:54:13;;;;;;;24.10;14.80;;;10.30;99.90;;;;;;10194612;29;20326;-88
2024/01/02 22:59:16;;;;;;;24.50;15.23;;;10.30;99.90;;;;;;10197612;29;20744;-87
2024/01/02 23:04:19;;;;;;;30.50;15.63;;;10.30;99.90;;;;;;10168058;29;20236;-88
2024/01/02 23:09:33;;;;;;;27.40;14.90;;;10.20;99.90;;;;;;10195966;29;20251;-87
2024/01/02 23:14:50;;;;;;;21.90;12.67;;;10.00;99.90;;;;;;10206328;29;20782;-88
2024/01/02 23:19:52;;;;;;;23.77;14.43;;;9.80;99.90;;;;;;10203010;29;20699;-88
2024/01/02 23:25:09;;;;;;;25.97;14.70;;;10.10;99.90;;;;;;10190816;29;20241;-87
2024/01/02 23:30:15;;;;;;;21.27;14.77;;;10.00;99.90;;;;;;10178712;29;20230;-87
2024/01/02 23:35:19;;;;;;;21.47;14.40;;;9.80;99.90;;;;;;10196993;29;20250;-87
2024/01/02 23:40:39;;;;;;;21.30;14.20;;;9.90;99.90;;;;;;10188947;29;20238;-87
2024/01/02 23:45:42;;;;;;;21.03;13.60;;;9.70;99.90;;;;;;10176616;29;20246;-87
2024/01/02 23:51:06;;;;;;;21.07;13.83;;;10.30;99.90;;;;;;10195626;29;20246;-87
2024/01/02 23:56:39;;;;;;;17.63;11.77;;;10.30;99.90;;;;;;10185199;29;20255;-86
